Wagner, Montana
Current Conditions -  °F | °C
As of 2:53 AM on Friday 21 Nov 2014 (Local Time) from KGGW Reporting Station
Clear Clear  
Wind Chill: 22°   Ceiling: Unl
Heat Index: 22°   Visibility: 10mi
Dew Point: 17°   Wind: 0mph
Humidity: 82%   Direction: NA
Pressure: 29.7"   Gusts: NA
Location:  48.3131°N, 107.89°W
Report Text: KGGW 210953Z AUTO 00000KT 10SM CLR M06/M08 A2970 RMK AO2 SLP092 T10561083
Loading
Personal Weather Stations






























Interactive Weather Map New forecast layout! Learn more

10-Day Weather Forecast

Advertisements
Track Severe Weather on mobile